Air Navigation Services of Czech Republic
Airport: LKLN Updated:  15.10.2019 18:25:25  UTC
 METAR LKLN 15.10. 18:30 ...
METAR LKLN 151830Z AUTO 00000KT 8000 BKN018 12/12 Q1007=